Flight Track Log - Related Links

Times and Time Zones

All times are in EDT time to prevent confusion due to time zone crossing. See the SWA2182 flight status page for this flight to view local times or setup timezone preferences in your user account.

Time Position Orientation Groundspeed Altitude Reporting Facility
EDT Latitude Longitude Course Direction KTS MPH feet Rate Location/Type
Sat 09:49:09 PM 36.0778 -115.1064 92° East 226 260 3,300  Level Los Angeles Center
Sat 09:49:52 PM 36.0761 -115.0592 92° East 219 252 4,400 2,345 Climbing Los Angeles Center
Sat 09:50:59 PM 36.0706 -114.9650 94° East 245 282 7,600 2,955 Climbing Los Angeles Center
Sat 09:52:06 PM 36.0014 -114.9350 161° South 249 287 11,000 2,744 Climbing Los Angeles Center
Sat 09:53:08 PM 35.9819 -115.0222 255° West 280 322 13,500 2,323 Climbing Los Angeles Center
Sat 09:54:10 PM 35.9719 -115.1375 264° West 322 371 15,800 2,565 Climbing Los Angeles Center
Sat 09:55:12 PM 35.9600 -115.2675 264° West 365 420 18,800 2,829 Climbing Los Angeles Center
Sat 09:56:13 PM 35.9472 -115.3981 263° West 378 435 21,600 2,634 Climbing Los Angeles Center
Sat 09:57:15 PM 35.9358 -115.5342 264° West 392 451 24,200 2,293 Climbing Los Angeles Center
Sat 09:58:16 PM 35.9219 -115.6731 263° West 401 461 26,300 2,098 Climbing Los Angeles Center
Sat 09:59:18 PM 35.9092 -115.8161 264° West 414 476 28,500 2,274 Climbing Los Angeles Center
Sat 10:00:20 PM 35.9072 -115.9644 269° West 415 478 31,000 1,707 Climbing Los Angeles Center
Sat 10:01:21 PM 35.9847 -116.0728 311° West 430 495 32,000 488 Climbing Los Angeles Center
Sat 10:02:23 PM 36.0817 -116.1842 317° Northwest 429 494 32,000  Level Los Angeles Center
Sat 10:03:24 PM 36.1594 -116.2744 317° Northwest 432 497 32,000  Level Los Angeles Center
Sat 10:04:26 PM 36.2472 -116.3767 317° Northwest 435 501 32,000  Level Los Angeles Center
Sat 10:05:27 PM 36.3522 -116.4961 318° Northwest 430 495 32,000  Level Los Angeles Center
Sat 10:06:41 PM 36.4386 -116.5975 317° Northwest 429 494 32,000  Level Los Angeles Center
Sat 10:07:43 PM 36.5386 -116.7139 317° Northwest 432 497 32,000  Level Los Angeles Center
Sat 10:08:44 PM 36.6372 -116.8064 323° Northwest 438 504 32,000  Level Los Angeles Center
Sat 10:09:46 PM 36.7472 -116.8900 329° Northwest 441 507 32,000  Level Los Angeles Center
Sat 10:10:48 PM 36.8208 -117.0294 303° West 429 494 32,000  Level Los Angeles Center
Sat 10:11:49 PM 36.8636 -117.1647 292° West 419 482 32,000  Level Los Angeles Center
Sat 10:12:51 PM 36.9056 -117.3011 291° West 419 482 32,000  Level Los Angeles Center
Sat 10:13:52 PM 36.9469 -117.4361 291° West 417 480 32,000  Level Los Angeles Center
Sat 10:14:54 PM 36.9883 -117.5725 291° West 417 480 32,000  Level Los Angeles Center
Sat 10:15:55 PM 37.0281 -117.7067 290° West 412 474 32,000  Level Los Angeles Center
Sat 10:16:57 PM 37.0692 -117.8431 291° West 415 478 32,000  Level Los Angeles Center
Sat 10:17:58 PM 37.1097 -117.9783 291° West 415 478 32,000  Level Los Angeles Center
Sat 10:19:00 PM 37.1500 -118.1156 290° West 417 480 32,000  Level Los Angeles Center
Sat 10:20:01 PM 37.1975 -118.2778 290° West 414 476 32,000  Level Los Angeles Center
Sat 10:21:03 PM 37.2378 -118.4144 290° West 415 478 32,000  Level Los Angeles Center
Sat 10:22:04 PM 37.2772 -118.5522 290° West 419 482 32,000 -293 Level Los Angeles Center
Sat 10:23:06 PM 37.3181 -118.6889 291° West 417 480 31,400 -780 Descending Los Angeles Center
Sat 10:24:07 PM 37.3567 -118.8242 290° West 413 475 30,400 -683 Descending Los Angeles Center
Sat 10:25:09 PM 37.3958 -118.9614 290° West 414 476 30,000 -195 Descending Los Angeles Center
Sat 10:26:10 PM 37.4344 -119.0983 290° West 415 478 30,000  Level Los Angeles Center
Sat 10:27:27 PM 37.4828 -119.2758 289° West 412 474 30,000  Level Oakland Center
Sat 10:28:28 PM 37.5208 -119.4133 289° West 416 479 30,000  Level Oakland Center
Sat 10:29:29 PM 37.5569 -119.5458 289° West 417 480 30,000  Level Oakland Center
Sat 10:30:30 PM 37.5947 -119.6819 289° West 413 475 30,000 -541 Level Oakland Center
Sat 10:31:31 PM 37.6414 -119.8461 290° West 414 476 28,900 -984 Descending Oakland Center
Sat 10:32:32 PM 37.6789 -119.9808 289° West 409 471 28,000 -885 Descending Oakland Center
Sat 10:33:33 PM 37.7139 -120.1142 288° West 402 463 27,100 -934 Descending Oakland Center
Sat 10:34:34 PM 37.7494 -120.2472 289° West 399 459 26,100 -984 Descending Oakland Center
Sat 10:35:35 PM 37.7858 -120.3775 290° West 393 452 25,100 -984 Descending Oakland Center
Sat 10:36:36 PM 37.8197 -120.5086 288° West 392 451 24,100 -1,230 Descending Oakland Center
Sat 10:37:37 PM 37.8553 -120.6381 289° West 390 449 22,600 -1,800 Descending Oakland Center
Sat 10:38:16 PM 37.8667 -120.7333 279° West 368 423 21,100 -2,121 Descending Northern Cal TRACON
Sat 10:39:16 PM 37.8500 -120.8500 260° West 356 410 19,100 -1,700 Descending Northern Cal TRACON
Sat 10:40:16 PM 37.8333 -120.9667 260° West 348 400 17,700 -1,211 Descending Northern Cal TRACON
Sat 10:41:10 PM 37.8167 -121.0833 260° West 359 413 16,800 -1,474 Descending Northern Cal TRACON
Sat 10:42:10 PM 37.7833 -121.2000 250° West 370 426 14,900 -1,900 Descending Northern Cal TRACON
Sat 10:43:10 PM 37.7500 -121.3000 247° West 335 386 13,000 -1,450 Descending Northern Cal TRACON
Sat 10:44:10 PM 37.7667 -121.4167 280° West 308 354 12,000 -1,200 Descending Northern Cal TRACON
Sat 10:45:10 PM 37.8000 -121.5167 293° West 302 348 10,600 -1,300 Descending Northern Cal TRACON
Sat 10:46:10 PM 37.8000 -121.6000 270° West 282 325 9,400 -1,250 Descending Northern Cal TRACON
Sat 10:47:10 PM 37.7333 -121.6500 211° Southwest 274 315 8,100 -1,000 Descending Northern Cal TRACON
Sat 10:48:16 PM 37.6667 -121.7000 211° Southwest 277 319 7,300 -650 Descending Northern Cal TRACON
Sat 10:49:10 PM 37.6333 -121.7667 238° Southwest 248 285 6,800 -550 Descending Northern Cal TRACON
Sat 10:50:16 PM 37.6167 -121.8333 253° West 210 242 6,200 -810 Descending Northern Cal TRACON
Sat 10:51:16 PM 37.5667 -121.8833 218° Southwest 196 226 5,100 -900 Descending Northern Cal TRACON
Sat 10:52:16 PM 37.5500 -121.9333 247° West 193 222 4,400 -600 Descending Northern Cal TRACON
Sat 10:53:16 PM 37.5667 -122.0000 288° West 182 209 3,900 -545 Descending Northern Cal TRACON
Sat 10:54:17 PM 37.5833 -122.0500 293° West 162 186 3,300 -700 Descending Northern Cal TRACON
Sat 10:55:16 PM 37.6167 -122.0833 322° Northwest 161 185 2,500 -816 Descending Northern Cal TRACON
Sat 10:56:22 PM 37.6500 -122.1333 310° West 151 174 1,600 -800 Descending Northern Cal TRACON
Sat 10:57:16 PM 37.6667 -122.1667 302° West 134 154 900 -684 Descending Northern Cal TRACON
Sat 10:58:16 PM 37.7000 -122.2000 322° Northwest 125 144 300 -600 Descending Northern Cal TRACON
Sat 11:00:00 PM 37.7167 -122.2167 270° West  Level FlightAware Approximate
Sat 11:07:00 PM 37.7213 -122.2207 270° West  Level Estimated

Login

Don't have an account? Register now (free) for customized features, flight alerts, and more!